Aquinnah, MA

7:44 PM EST on December 24, 2014 (GMT -0500)
Martha's Vineyard | Change Station
CLOSE
Current Station
Airport
Location: Martha's Vineyard,
Elevation: 69 ft
Nearby Weather Stations
Active Advisory: Wind Advisory

Elev 69 ft 41.39 °N, 70.61 °W | Updated 5 minutes ago

Rain
Rain
56 °F
Feels Like 56 °F
N
18
Wind Variable Wind from South
Gusts 26 mph

Today
High -- | Low -- °F
--% Chance of Precip.
Yesterday
High -- | Low -- °F
Precip. -- in
7:06 AM 4:18 PM
Waxing Crescent, 12% visible
Pressure 29.75 in
Visibility 0.8 miles
Clouds
Dew Point 56 °F
Humidity 100%
Rainfall 0.45 in
Snow Depth Not available.
UV Not available.
Pollen .10 out of 12
Air Quality Not available.
Flu Activity Not available.
SPECI KMVY 250039Z AUTO 18016G23KT 3/4SM R24/5000VP6000FT -RA BR VV002 13/13 A2975 RMK AO2 P0005 T01330133

More Conditions Fewer Conditions

Pressure 29.75 in
Visibility 0.8 miles
Clouds
Dew Point 56 °F
Humidity 100%
Rainfall 0.45 in
Snow Depth Not available.
UV Not available.
Pollen .10 out of 12
Air Quality Not available.
Flu Activity Not available.
SPECI KMVY 250039Z AUTO 18016G23KT 3/4SM R24/5000VP6000FT -RA BR VV002 13/13 A2975 RMK AO2 P0005 T01330133

More Conditions Fewer Conditions

10-Day Weather Forecast

Almanac

Astronomy

Dec. 24, 2014 Rise Set
Actual Time
Civil Twilight
Nautical Twilight
Astronomical Twilight
Moon
Length of Visible Light
Length of Day
Tomorrow will be .
, % of the Moon is Illuminated

Today's Extremes

State Highs State Lows

Community

WunderPhotos

Upload Photos

1,780,194 photos uploaded!

WunderBlogs® & News

Nearby

Air Quality

  Air Quality AQ Index Pollutant
Not available.

Snow Depth

Station Depth Elevation

Earthquake Activity

City Distance Mag. Time & Date
Minimum magnitude displayed is 2.5.

Coastal Water Temperatures

Place Temperature

Nearby Weather Stations